sensor_id;sensor_type;location;lat;lon;timestamp;temperature;humidity
21676;DHT22;10999;51.332;9.458;2023-04-15T00:00:57;7.00;79.80
21676;DHT22;10999;51.332;9.458;2023-04-15T00:03:25;7.00;80.00
21676;DHT22;10999;51.332;9.458;2023-04-15T00:05:53;7.00;80.10
21676;DHT22;10999;51.332;9.458;2023-04-15T00:08:19;7.00;80.60
21676;DHT22;10999;51.332;9.458;2023-04-15T00:10:46;7.00;81.10
21676;DHT22;10999;51.332;9.458;2023-04-15T00:13:13;7.00;81.50
21676;DHT22;10999;51.332;9.458;2023-04-15T00:15:40;7.00;82.30
21676;DHT22;10999;51.332;9.458;2023-04-15T00:18:08;7.00;82.20
21676;DHT22;10999;51.332;9.458;2023-04-15T00:20:34;7.00;82.60
21676;DHT22;10999;51.332;9.458;2023-04-15T00:23:02;7.00;82.60
21676;DHT22;10999;51.332;9.458;2023-04-15T00:25:29;7.00;82.80
21676;DHT22;10999;51.332;9.458;2023-04-15T00:27:56;7.00;82.70
21676;DHT22;10999;51.332;9.458;2023-04-15T00:30:23;7.00;82.80
21676;DHT22;10999;51.332;9.458;2023-04-15T00:32:51;7.00;83.10
21676;DHT22;10999;51.332;9.458;2023-04-15T00:35:18;7.00;83.50
21676;DHT22;10999;51.332;9.458;2023-04-15T00:37:45;7.00;83.70
21676;DHT22;10999;51.332;9.458;2023-04-15T00:40:12;7.00;84.10
21676;DHT22;10999;51.332;9.458;2023-04-15T00:42:39;7.00;84.30
21676;DHT22;10999;51.332;9.458;2023-04-15T00:45:06;7.00;84.30
21676;DHT22;10999;51.332;9.458;2023-04-15T00:47:35;7.00;84.20
21676;DHT22;10999;51.332;9.458;2023-04-15T00:50:03;7.10;84.30
21676;DHT22;10999;51.332;9.458;2023-04-15T00:52:31;7.00;84.10
21676;DHT22;10999;51.332;9.458;2023-04-15T00:54:58;7.00;84.10
21676;DHT22;10999;51.332;9.458;2023-04-15T00:57:27;7.00;84.10
21676;DHT22;10999;51.332;9.458;2023-04-15T00:59:55;7.00;83.90
21676;DHT22;10999;51.332;9.458;2023-04-15T01:02:22;7.00;84.10
21676;DHT22;10999;51.332;9.458;2023-04-15T01:04:49;7.00;84.30
21676;DHT22;10999;51.332;9.458;2023-04-15T01:07:17;6.90;84.50
21676;DHT22;10999;51.332;9.458;2023-04-15T01:09:44;6.90;84.50
21676;DHT22;10999;51.332;9.458;2023-04-15T01:12:11;6.90;84.60
21676;DHT22;10999;51.332;9.458;2023-04-15T01:14:39;6.90;84.80
21676;DHT22;10999;51.332;9.458;2023-04-15T01:17:06;6.80;84.80
21676;DHT22;10999;51.332;9.458;2023-04-15T01:19:34;6.80;84.80
21676;DHT22;10999;51.332;9.458;2023-04-15T01:22:02;6.80;85.00
21676;DHT22;10999;51.332;9.458;2023-04-15T01:24:31;6.80;85.50
21676;DHT22;10999;51.332;9.458;2023-04-15T01:26:58;6.80;85.50
21676;DHT22;10999;51.332;9.458;2023-04-15T01:29:25;6.80;85.70
21676;DHT22;10999;51.332;9.458;2023-04-15T01:31:54;6.70;85.80
21676;DHT22;10999;51.332;9.458;2023-04-15T01:34:21;6.70;86.00
21676;DHT22;10999;51.332;9.458;2023-04-15T01:36:48;6.70;85.90
21676;DHT22;10999;51.332;9.458;2023-04-15T01:39:14;6.70;85.90
21676;DHT22;10999;51.332;9.458;2023-04-15T01:41:41;6.70;86.10
21676;DHT22;10999;51.332;9.458;2023-04-15T01:44:08;6.70;86.10
21676;DHT22;10999;51.332;9.458;2023-04-15T01:46:35;6.70;86.00
21676;DHT22;10999;51.332;9.458;2023-04-15T01:49:02;6.70;85.80
21676;DHT22;10999;51.332;9.458;2023-04-15T01:51:29;6.70;85.80
21676;DHT22;10999;51.332;9.458;2023-04-15T01:53:55;6.70;86.20
21676;DHT22;10999;51.332;9.458;2023-04-15T01:56:22;6.60;86.30
21676;DHT22;10999;51.332;9.458;2023-04-15T01:58:50;6.70;86.50
21676;DHT22;10999;51.332;9.458;2023-04-15T02:01:17;6.70;86.50
21676;DHT22;10999;51.332;9.458;2023-04-15T02:03:45;6.70;86.60
21676;DHT22;10999;51.332;9.458;2023-04-15T02:06:13;6.70;86.60
21676;DHT22;10999;51.332;9.458;2023-04-15T02:08:40;6.70;86.40
21676;DHT22;10999;51.332;9.458;2023-04-15T02:11:07;6.70;87.00
21676;DHT22;10999;51.332;9.458;2023-04-15T02:13:34;6.70;86.30
21676;DHT22;10999;51.332;9.458;2023-04-15T02:16:01;6.60;86.30
21676;DHT22;10999;51.332;9.458;2023-04-15T02:18:28;6.60;86.40
21676;DHT22;10999;51.332;9.458;2023-04-15T02:20:55;6.60;86.50
21676;DHT22;10999;51.332;9.458;2023-04-15T02:23:24;6.60;86.60
21676;DHT22;10999;51.332;9.458;2023-04-15T02:25:51;6.60;86.70
21676;DHT22;10999;51.332;9.458;2023-04-15T02:28:20;6.50;86.80
21676;DHT22;10999;51.332;9.458;2023-04-15T02:30:50;6.50;87.00
21676;DHT22;10999;51.332;9.458;2023-04-15T02:33:19;6.50;87.40
21676;DHT22;10999;51.332;9.458;2023-04-15T02:35:46;6.50;87.50
21676;DHT22;10999;51.332;9.458;2023-04-15T02:38:13;6.60;87.60
21676;DHT22;10999;51.332;9.458;2023-04-15T02:40:42;6.60;87.40
21676;DHT22;10999;51.332;9.458;2023-04-15T02:43:09;6.60;87.20
21676;DHT22;10999;51.332;9.458;2023-04-15T02:45:36;6.70;87.10
21676;DHT22;10999;51.332;9.458;2023-04-15T02:48:03;6.60;87.00
21676;DHT22;10999;51.332;9.458;2023-04-15T02:50:32;6.60;86.80
21676;DHT22;10999;51.332;9.458;2023-04-15T02:52:59;6.60;86.80
21676;DHT22;10999;51.332;9.458;2023-04-15T02:55:27;6.60;86.70
21676;DHT22;10999;51.332;9.458;2023-04-15T02:57:54;6.60;86.80
21676;DHT22;10999;51.332;9.458;2023-04-15T03:00:21;6.50;86.90
21676;DHT22;10999;51.332;9.458;2023-04-15T03:02:50;6.50;86.90
21676;DHT22;10999;51.332;9.458;2023-04-15T03:05:22;6.50;87.20
21676;DHT22;10999;51.332;9.458;2023-04-15T03:07:51;6.50;87.40
21676;DHT22;10999;51.332;9.458;2023-04-15T03:10:18;6.40;87.40
21676;DHT22;10999;51.332;9.458;2023-04-15T03:12:45;6.40;87.60
21676;DHT22;10999;51.332;9.458;2023-04-15T03:15:12;6.40;87.80
21676;DHT22;10999;51.332;9.458;2023-04-15T03:17:39;6.30;87.90
21676;DHT22;10999;51.332;9.458;2023-04-15T03:20:06;6.40;87.90
21676;DHT22;10999;51.332;9.458;2023-04-15T03:22:33;6.30;88.00
21676;DHT22;10999;51.332;9.458;2023-04-15T03:24:59;6.30;88.20
21676;DHT22;10999;51.332;9.458;2023-04-15T03:27:26;6.20;88.50
21676;DHT22;10999;51.332;9.458;2023-04-15T03:29:53;6.20;88.70
21676;DHT22;10999;51.332;9.458;2023-04-15T03:32:19;6.20;88.70
21676;DHT22;10999;51.332;9.458;2023-04-15T03:34:47;6.20;88.60
21676;DHT22;10999;51.332;9.458;2023-04-15T03:37:13;6.20;89.50
21676;DHT22;10999;51.332;9.458;2023-04-15T03:39:40;6.20;89.00
21676;DHT22;10999;51.332;9.458;2023-04-15T03:42:07;6.10;89.20
21676;DHT22;10999;51.332;9.458;2023-04-15T03:44:33;6.10;89.40
21676;DHT22;10999;51.332;9.458;2023-04-15T03:47:00;6.10;89.50
21676;DHT22;10999;51.332;9.458;2023-04-15T03:49:27;6.10;89.90
21676;DHT22;10999;51.332;9.458;2023-04-15T03:51:54;6.10;89.90
21676;DHT22;10999;51.332;9.458;2023-04-15T03:54:21;6.10;90.00
21676;DHT22;10999;51.332;9.458;2023-04-15T03:56:47;6.00;90.10
21676;DHT22;10999;51.332;9.458;2023-04-15T03:59:14;6.00;90.60
21676;DHT22;10999;51.332;9.458;2023-04-15T04:01:41;6.00;90.90
21676;DHT22;10999;51.332;9.458;2023-04-15T04:04:07;6.00;91.00
21676;DHT22;10999;51.332;9.458;2023-04-15T04:06:34;6.00;91.00
21676;DHT22;10999;51.332;9.458;2023-04-15T04:09:01;6.00;91.00
21676;DHT22;10999;51.332;9.458;2023-04-15T04:11:28;6.10;91.10
21676;DHT22;10999;51.332;9.458;2023-04-15T04:13:55;6.10;91.30
21676;DHT22;10999;51.332;9.458;2023-04-15T04:16:22;6.00;91.20
21676;DHT22;10999;51.332;9.458;2023-04-15T04:18:48;6.00;91.30
21676;DHT22;10999;51.332;9.458;2023-04-15T04:21:15;6.00;91.70
21676;DHT22;10999;51.332;9.458;2023-04-15T04:23:42;6.00;91.70
21676;DHT22;10999;51.332;9.458;2023-04-15T04:26:09;6.00;91.90
21676;DHT22;10999;51.332;9.458;2023-04-15T04:28:36;6.00;92.00
21676;DHT22;10999;51.332;9.458;2023-04-15T04:31:06;6.10;92.30
21676;DHT22;10999;51.332;9.458;2023-04-15T04:33:32;6.00;92.30
21676;DHT22;10999;51.332;9.458;2023-04-15T04:35:59;6.00;92.40
21676;DHT22;10999;51.332;9.458;2023-04-15T04:38:26;6.10;92.50
21676;DHT22;10999;51.332;9.458;2023-04-15T04:40:53;6.10;92.60
21676;DHT22;10999;51.332;9.458;2023-04-15T04:43:19;6.10;92.70
21676;DHT22;10999;51.332;9.458;2023-04-15T04:45:46;6.10;92.80
21676;DHT22;10999;51.332;9.458;2023-04-15T04:48:13;6.10;93.00
21676;DHT22;10999;51.332;9.458;2023-04-15T04:50:39;6.10;92.90
21676;DHT22;10999;51.332;9.458;2023-04-15T04:53:06;6.10;92.70
21676;DHT22;10999;51.332;9.458;2023-04-15T04:55:33;6.10;92.80
21676;DHT22;10999;51.332;9.458;2023-04-15T04:58:02;6.10;92.90
21676;DHT22;10999;51.332;9.458;2023-04-15T05:00:29;6.10;92.80
21676;DHT22;10999;51.332;9.458;2023-04-15T05:02:55;6.10;92.90
21676;DHT22;10999;51.332;9.458;2023-04-15T05:05:22;6.10;92.90
21676;DHT22;10999;51.332;9.458;2023-04-15T05:07:49;6.10;92.80
21676;DHT22;10999;51.332;9.458;2023-04-15T05:10:16;6.20;93.10
21676;DHT22;10999;51.332;9.458;2023-04-15T05:12:43;6.20;92.80
21676;DHT22;10999;51.332;9.458;2023-04-15T05:15:11;6.20;92.80
21676;DHT22;10999;51.332;9.458;2023-04-15T05:17:38;6.20;92.70
21676;DHT22;10999;51.332;9.458;2023-04-15T05:20:05;6.30;92.80
21676;DHT22;10999;51.332;9.458;2023-04-15T05:22:33;6.30;92.80
21676;DHT22;10999;51.332;9.458;2023-04-15T05:25:00;6.20;92.60
21676;DHT22;10999;51.332;9.458;2023-04-15T05:27:31;6.30;92.60
21676;DHT22;10999;51.332;9.458;2023-04-15T05:29:58;6.30;92.40
21676;DHT22;10999;51.332;9.458;2023-04-15T05:32:24;6.30;92.40
21676;DHT22;10999;51.332;9.458;2023-04-15T05:34:51;6.30;92.30
21676;DHT22;10999;51.332;9.458;2023-04-15T05:37:27;6.40;92.40
21676;DHT22;10999;51.332;9.458;2023-04-15T05:39:55;6.40;93.30
21676;DHT22;10999;51.332;9.458;2023-04-15T05:42:23;6.40;92.60
21676;DHT22;10999;51.332;9.458;2023-04-15T05:44:50;6.40;92.60
21676;DHT22;10999;51.332;9.458;2023-04-15T05:47:17;6.50;92.50
21676;DHT22;10999;51.332;9.458;2023-04-15T05:49:44;6.50;92.10
21676;DHT22;10999;51.332;9.458;2023-04-15T05:52:11;6.50;91.80
21676;DHT22;10999;51.332;9.458;2023-04-15T05:54:38;6.50;91.60
21676;DHT22;10999;51.332;9.458;2023-04-15T05:57:05;6.50;91.60
21676;DHT22;10999;51.332;9.458;2023-04-15T05:59:32;6.50;91.30
21676;DHT22;10999;51.332;9.458;2023-04-15T06:01:58;6.60;91.00
21676;DHT22;10999;51.332;9.458;2023-04-15T06:04:25;6.60;90.80
21676;DHT22;10999;51.332;9.458;2023-04-15T06:06:52;6.70;90.60
21676;DHT22;10999;51.332;9.458;2023-04-15T06:09:19;6.70;90.50
21676;DHT22;10999;51.332;9.458;2023-04-15T06:11:46;6.70;90.50
21676;DHT22;10999;51.332;9.458;2023-04-15T06:14:13;6.70;90.50
21676;DHT22;10999;51.332;9.458;2023-04-15T06:16:39;6.70;90.20
21676;DHT22;10999;51.332;9.458;2023-04-15T06:19:06;6.70;90.40
21676;DHT22;10999;51.332;9.458;2023-04-15T06:21:33;6.70;90.40
21676;DHT22;10999;51.332;9.458;2023-04-15T06:24:00;6.60;90.60
21676;DHT22;10999;51.332;9.458;2023-04-15T06:26:27;6.60;90.80
21676;DHT22;10999;51.332;9.458;2023-04-15T06:28:54;6.60;91.30
21676;DHT22;10999;51.332;9.458;2023-04-15T06:31:21;6.60;92.00
21676;DHT22;10999;51.332;9.458;2023-04-15T06:33:50;6.60;92.70
21676;DHT22;10999;51.332;9.458;2023-04-15T06:36:17;6.60;92.80
21676;DHT22;10999;51.332;9.458;2023-04-15T06:38:45;6.50;93.20
21676;DHT22;10999;51.332;9.458;2023-04-15T06:41:12;6.50;93.80
21676;DHT22;10999;51.332;9.458;2023-04-15T06:43:38;6.50;94.00
21676;DHT22;10999;51.332;9.458;2023-04-15T06:46:05;6.50;94.20
21676;DHT22;10999;51.332;9.458;2023-04-15T06:48:33;6.50;94.40
21676;DHT22;10999;51.332;9.458;2023-04-15T06:50:59;6.50;94.60
21676;DHT22;10999;51.332;9.458;2023-04-15T06:53:26;6.50;95.00
21676;DHT22;10999;51.332;9.458;2023-04-15T06:55:56;6.40;95.70
21676;DHT22;10999;51.332;9.458;2023-04-15T06:58:22;6.50;95.50
21676;DHT22;10999;51.332;9.458;2023-04-15T07:00:49;6.50;95.70
21676;DHT22;10999;51.332;9.458;2023-04-15T07:03:19;6.50;95.80
21676;DHT22;10999;51.332;9.458;2023-04-15T07:05:46;6.50;96.00
21676;DHT22;10999;51.332;9.458;2023-04-15T07:08:13;6.60;95.60
21676;DHT22;10999;51.332;9.458;2023-04-15T07:10:40;6.60;95.70
21676;DHT22;10999;51.332;9.458;2023-04-15T07:13:07;6.60;95.50
21676;DHT22;10999;51.332;9.458;2023-04-15T07:15:34;6.60;95.90
21676;DHT22;10999;51.332;9.458;2023-04-15T07:18:01;6.60;96.50
21676;DHT22;10999;51.332;9.458;2023-04-15T07:20:28;6.70;97.00
21676;DHT22;10999;51.332;9.458;2023-04-15T07:22:55;6.70;97.00
21676;DHT22;10999;51.332;9.458;2023-04-15T07:25:21;6.70;97.10
21676;DHT22;10999;51.332;9.458;2023-04-15T07:27:48;6.80;97.00
21676;DHT22;10999;51.332;9.458;2023-04-15T07:30:15;6.80;97.00
21676;DHT22;10999;51.332;9.458;2023-04-15T07:32:42;6.80;97.20
21676;DHT22;10999;51.332;9.458;2023-04-15T07:35:09;6.80;96.60
21676;DHT22;10999;51.332;9.458;2023-04-15T07:37:36;6.80;97.30
21676;DHT22;10999;51.332;9.458;2023-04-15T07:40:03;6.90;98.60
21676;DHT22;10999;51.332;9.458;2023-04-15T07:42:30;6.90;97.70
21676;DHT22;10999;51.332;9.458;2023-04-15T07:44:57;6.90;97.90
21676;DHT22;10999;51.332;9.458;2023-04-15T07:47:23;6.90;97.70
21676;DHT22;10999;51.332;9.458;2023-04-15T07:49:51;6.90;97.60
21676;DHT22;10999;51.332;9.458;2023-04-15T07:52:18;7.00;97.70
21676;DHT22;10999;51.332;9.458;2023-04-15T07:54:44;7.00;97.80
21676;DHT22;10999;51.332;9.458;2023-04-15T07:57:11;7.00;97.40
21676;DHT22;10999;51.332;9.458;2023-04-15T07:59:38;6.90;97.30
21676;DHT22;10999;51.332;9.458;2023-04-15T08:02:04;6.90;97.80
21676;DHT22;10999;51.332;9.458;2023-04-15T08:04:31;6.90;97.90
21676;DHT22;10999;51.332;9.458;2023-04-15T08:06:59;7.00;98.10
21676;DHT22;10999;51.332;9.458;2023-04-15T08:09:26;7.00;97.80
21676;DHT22;10999;51.332;9.458;2023-04-15T08:11:53;7.00;97.30
21676;DHT22;10999;51.332;9.458;2023-04-15T08:14:19;7.00;97.90
21676;DHT22;10999;51.332;9.458;2023-04-15T08:16:46;7.10;98.40
21676;DHT22;10999;51.332;9.458;2023-04-15T08:19:13;7.10;97.60
21676;DHT22;10999;51.332;9.458;2023-04-15T08:21:39;7.10;98.20
21676;DHT22;10999;51.332;9.458;2023-04-15T08:24:06;7.00;97.90
21676;DHT22;10999;51.332;9.458;2023-04-15T08:26:33;7.00;97.90
21676;DHT22;10999;51.332;9.458;2023-04-15T08:29:00;7.00;98.00
21676;DHT22;10999;51.332;9.458;2023-04-15T08:31:28;7.10;98.60
21676;DHT22;10999;51.332;9.458;2023-04-15T08:33:56;7.10;99.20
21676;DHT22;10999;51.332;9.458;2023-04-15T08:36:23;7.10;98.90
21676;DHT22;10999;51.332;9.458;2023-04-15T08:38:50;7.10;98.80
21676;DHT22;10999;51.332;9.458;2023-04-15T08:41:21;7.20;99.10
21676;DHT22;10999;51.332;9.458;2023-04-15T08:46:20;7.10;99.40
21676;DHT22;10999;51.332;9.458;2023-04-15T08:48:49;7.20;98.80
21676;DHT22;10999;51.332;9.458;2023-04-15T08:51:17;7.20;99.00
21676;DHT22;10999;51.332;9.458;2023-04-15T08:53:44;7.20;98.80
21676;DHT22;10999;51.332;9.458;2023-04-15T08:56:14;7.20;98.80
21676;DHT22;10999;51.332;9.458;2023-04-15T08:58:45;7.20;98.70
21676;DHT22;10999;51.332;9.458;2023-04-15T09:01:12;7.20;98.40
21676;DHT22;10999;51.332;9.458;2023-04-15T09:03:39;7.20;99.20
21676;DHT22;10999;51.332;9.458;2023-04-15T09:06:07;7.20;99.50
21676;DHT22;10999;51.332;9.458;2023-04-15T09:08:34;7.30;99.70
21676;DHT22;10999;51.332;9.458;2023-04-15T09:11:02;7.20;98.50
21676;DHT22;10999;51.332;9.458;2023-04-15T09:13:29;7.20;98.70
21676;DHT22;10999;51.332;9.458;2023-04-15T09:15:56;7.20;99.20
21676;DHT22;10999;51.332;9.458;2023-04-15T09:18:32;7.20;99.50
21676;DHT22;10999;51.332;9.458;2023-04-15T09:23:34;7.20;99.10
21676;DHT22;10999;51.332;9.458;2023-04-15T09:26:02;7.20;99.00
21676;DHT22;10999;51.332;9.458;2023-04-15T09:28:29;7.20;99.50
21676;DHT22;10999;51.332;9.458;2023-04-15T09:30:57;7.20;98.90
21676;DHT22;10999;51.332;9.458;2023-04-15T09:33:26;7.20;98.90
21676;DHT22;10999;51.332;9.458;2023-04-15T09:36:04;7.10;99.30
21676;DHT22;10999;51.332;9.458;2023-04-15T09:38:32;7.10;99.40
21676;DHT22;10999;51.332;9.458;2023-04-15T09:40:59;7.10;99.70
21676;DHT22;10999;51.332;9.458;2023-04-15T09:43:39;7.10;99.30
21676;DHT22;10999;51.332;9.458;2023-04-15T09:46:06;7.10;99.70
21676;DHT22;10999;51.332;9.458;2023-04-15T09:48:33;7.10;99.90
21676;DHT22;10999;51.332;9.458;2023-04-15T09:51:00;7.10;99.90
21676;DHT22;10999;51.332;9.458;2023-04-15T09:53:28;7.00;99.60
21676;DHT22;10999;51.332;9.458;2023-04-15T09:55:58;7.10;99.90
21676;DHT22;10999;51.332;9.458;2023-04-15T09:58:32;7.00;99.60
21676;DHT22;10999;51.332;9.458;2023-04-15T10:01:03;7.00;99.80
21676;DHT22;10999;51.332;9.458;2023-04-15T10:03:34;7.00;99.80
21676;DHT22;10999;51.332;9.458;2023-04-15T10:06:03;7.00;99.90
21676;DHT22;10999;51.332;9.458;2023-04-15T10:08:33;7.00;99.90
21676;DHT22;10999;51.332;9.458;2023-04-15T10:11:03;7.00;99.90
21676;DHT22;10999;51.332;9.458;2023-04-15T10:13:32;7.00;99.90
21676;DHT22;10999;51.332;9.458;2023-04-15T10:16:09;7.00;99.90
21676;DHT22;10999;51.332;9.458;2023-04-15T10:18:45;7.00;99.90
21676;DHT22;10999;51.332;9.458;2023-04-15T10:21:12;7.00;99.90
21676;DHT22;10999;51.332;9.458;2023-04-15T10:23:47;7.00;99.90
21676;DHT22;10999;51.332;9.458;2023-04-15T10:26:15;7.00;99.90
21676;DHT22;10999;51.332;9.458;2023-04-15T10:28:45;7.00;99.90
21676;DHT22;10999;51.332;9.458;2023-04-15T10:31:14;7.00;99.90
21676;DHT22;10999;51.332;9.458;2023-04-15T10:33:43;7.00;99.90
21676;DHT22;10999;51.332;9.458;2023-04-15T10:36:11;7.00;99.90
21676;DHT22;10999;51.332;9.458;2023-04-15T10:38:43;7.00;99.90
21676;DHT22;10999;51.332;9.458;2023-04-15T10:41:18;7.00;99.90
21676;DHT22;10999;51.332;9.458;2023-04-15T10:44:09;6.90;99.90
21676;DHT22;10999;51.332;9.458;2023-04-15T10:49:15;6.90;99.90
21676;DHT22;10999;51.332;9.458;2023-04-15T10:51:46;7.00;99.90
21676;DHT22;10999;51.332;9.458;2023-04-15T10:54:30;7.00;99.90
21676;DHT22;10999;51.332;9.458;2023-04-15T10:59:31;7.10;99.90
21676;DHT22;10999;51.332;9.458;2023-04-15T11:02:01;7.10;99.90
21676;DHT22;10999;51.332;9.458;2023-04-15T11:04:51;7.20;99.90
21676;DHT22;10999;51.332;9.458;2023-04-15T11:13:02;7.20;99.90
21676;DHT22;10999;51.332;9.458;2023-04-15T11:15:35;7.20;99.90
21676;DHT22;10999;51.332;9.458;2023-04-15T11:20:51;7.20;99.90
21676;DHT22;10999;51.332;9.458;2023-04-15T11:23:41;7.30;99.90
21676;DHT22;10999;51.332;9.458;2023-04-15T11:26:12;7.20;99.90
21676;DHT22;10999;51.332;9.458;2023-04-15T11:28:40;7.30;99.90
21676;DHT22;10999;51.332;9.458;2023-04-15T11:31:15;7.30;99.90
21676;DHT22;10999;51.332;9.458;2023-04-15T11:34:02;7.30;99.90
21676;DHT22;10999;51.332;9.458;2023-04-15T11:36:29;7.40;99.90
21676;DHT22;10999;51.332;9.458;2023-04-15T11:38:58;7.40;99.90
21676;DHT22;10999;51.332;9.458;2023-04-15T11:41:25;7.40;99.90
21676;DHT22;10999;51.332;9.458;2023-04-15T11:43:52;7.40;99.90
21676;DHT22;10999;51.332;9.458;2023-04-15T11:46:19;7.40;99.90
21676;DHT22;10999;51.332;9.458;2023-04-15T11:48:47;7.40;99.90
21676;DHT22;10999;51.332;9.458;2023-04-15T11:51:14;7.40;99.90
21676;DHT22;10999;51.332;9.458;2023-04-15T11:53:46;7.40;99.90
21676;DHT22;10999;51.332;9.458;2023-04-15T11:56:21;7.40;99.90
21676;DHT22;10999;51.332;9.458;2023-04-15T11:58:56;7.40;99.90
21676;DHT22;10999;51.332;9.458;2023-04-15T12:01:35;7.40;99.90
21676;DHT22;10999;51.332;9.458;2023-04-15T12:04:16;7.50;99.90
21676;DHT22;10999;51.332;9.458;2023-04-15T12:06:49;7.50;99.90
21676;DHT22;10999;51.332;9.458;2023-04-15T12:09:16;7.50;99.90
21676;DHT22;10999;51.332;9.458;2023-04-15T12:11:45;7.50;99.90
21676;DHT22;10999;51.332;9.458;2023-04-15T12:14:27;7.50;99.90
21676;DHT22;10999;51.332;9.458;2023-04-15T12:16:59;7.50;99.90
21676;DHT22;10999;51.332;9.458;2023-04-15T12:22:01;7.50;99.90
21676;DHT22;10999;51.332;9.458;2023-04-15T12:24:33;7.50;99.90
21676;DHT22;10999;51.332;9.458;2023-04-15T12:27:04;7.50;99.90
21676;DHT22;10999;51.332;9.458;2023-04-15T12:29:32;7.50;99.90
21676;DHT22;10999;51.332;9.458;2023-04-15T12:32:13;7.50;99.90
21676;DHT22;10999;51.332;9.458;2023-04-15T12:34:43;7.50;99.90
21676;DHT22;10999;51.332;9.458;2023-04-15T12:37:11;7.50;99.90
21676;DHT22;10999;51.332;9.458;2023-04-15T12:39:43;7.50;99.90
21676;DHT22;10999;51.332;9.458;2023-04-15T12:42:10;7.50;99.90
21676;DHT22;10999;51.332;9.458;2023-04-15T12:44:38;7.50;99.90
21676;DHT22;10999;51.332;9.458;2023-04-15T12:47:06;7.50;99.90
21676;DHT22;10999;51.332;9.458;2023-04-15T12:49:33;7.50;99.90
21676;DHT22;10999;51.332;9.458;2023-04-15T12:52:01;7.60;99.90
21676;DHT22;10999;51.332;9.458;2023-04-15T12:54:31;7.50;99.90
21676;DHT22;10999;51.332;9.458;2023-04-15T12:56:58;7.50;99.90
21676;DHT22;10999;51.332;9.458;2023-04-15T12:59:25;7.50;99.90
21676;DHT22;10999;51.332;9.458;2023-04-15T13:01:52;7.50;99.90
21676;DHT22;10999;51.332;9.458;2023-04-15T13:04:20;7.60;99.90
21676;DHT22;10999;51.332;9.458;2023-04-15T13:06:47;7.60;99.90
21676;DHT22;10999;51.332;9.458;2023-04-15T13:09:14;7.60;99.90
21676;DHT22;10999;51.332;9.458;2023-04-15T13:11:41;7.60;99.90
21676;DHT22;10999;51.332;9.458;2023-04-15T13:14:09;7.60;99.90
21676;DHT22;10999;51.332;9.458;2023-04-15T13:16:37;7.70;99.90
21676;DHT22;10999;51.332;9.458;2023-04-15T13:19:04;7.70;99.90
21676;DHT22;10999;51.332;9.458;2023-04-15T13:21:31;7.70;99.90
21676;DHT22;10999;51.332;9.458;2023-04-15T13:24:01;7.70;99.90
21676;DHT22;10999;51.332;9.458;2023-04-15T13:26:28;7.70;99.90
21676;DHT22;10999;51.332;9.458;2023-04-15T13:28:57;7.70;99.90
21676;DHT22;10999;51.332;9.458;2023-04-15T13:31:24;7.70;99.90
21676;DHT22;10999;51.332;9.458;2023-04-15T13:33:51;7.70;99.90
21676;DHT22;10999;51.332;9.458;2023-04-15T13:36:18;7.70;99.90
21676;DHT22;10999;51.332;9.458;2023-04-15T13:38:45;7.70;99.90
21676;DHT22;10999;51.332;9.458;2023-04-15T13:41:14;7.70;99.90
21676;DHT22;10999;51.332;9.458;2023-04-15T13:43:41;7.70;99.90
21676;DHT22;10999;51.332;9.458;2023-04-15T13:46:08;7.80;99.90
21676;DHT22;10999;51.332;9.458;2023-04-15T13:48:35;7.80;99.90
21676;DHT22;10999;51.332;9.458;2023-04-15T13:51:01;7.80;99.90
21676;DHT22;10999;51.332;9.458;2023-04-15T13:53:28;7.80;99.90
21676;DHT22;10999;51.332;9.458;2023-04-15T13:56:08;7.90;99.90
21676;DHT22;10999;51.332;9.458;2023-04-15T13:58:36;7.90;99.90
21676;DHT22;10999;51.332;9.458;2023-04-15T14:01:04;7.80;99.90
21676;DHT22;10999;51.332;9.458;2023-04-15T14:03:34;7.80;99.90
21676;DHT22;10999;51.332;9.458;2023-04-15T14:13:30;7.90;99.90
21676;DHT22;10999;51.332;9.458;2023-04-15T14:15:57;7.90;99.90
21676;DHT22;10999;51.332;9.458;2023-04-15T14:18:24;7.90;99.90
21676;DHT22;10999;51.332;9.458;2023-04-15T14:20:50;7.90;99.90
21676;DHT22;10999;51.332;9.458;2023-04-15T14:23:17;7.90;99.90
21676;DHT22;10999;51.332;9.458;2023-04-15T14:25:44;7.90;99.90
21676;DHT22;10999;51.332;9.458;2023-04-15T14:28:14;7.90;99.90
21676;DHT22;10999;51.332;9.458;2023-04-15T14:30:40;7.90;99.90
21676;DHT22;10999;51.332;9.458;2023-04-15T14:33:07;7.90;99.90
21676;DHT22;10999;51.332;9.458;2023-04-15T14:35:34;7.90;99.90
21676;DHT22;10999;51.332;9.458;2023-04-15T14:38:01;7.90;99.90
21676;DHT22;10999;51.332;9.458;2023-04-15T14:40:28;7.90;99.90
21676;DHT22;10999;51.332;9.458;2023-04-15T14:42:54;7.90;99.90
21676;DHT22;10999;51.332;9.458;2023-04-15T14:45:21;7.90;99.90
21676;DHT22;10999;51.332;9.458;2023-04-15T14:47:48;7.90;99.90
21676;DHT22;10999;51.332;9.458;2023-04-15T14:50:15;7.90;99.90
21676;DHT22;10999;51.332;9.458;2023-04-15T14:52:42;7.90;99.90
21676;DHT22;10999;51.332;9.458;2023-04-15T14:55:12;7.90;99.90
21676;DHT22;10999;51.332;9.458;2023-04-15T14:57:40;7.90;99.90
21676;DHT22;10999;51.332;9.458;2023-04-15T15:00:08;7.90;99.90
21676;DHT22;10999;51.332;9.458;2023-04-15T15:02:37;7.90;99.90
21676;DHT22;10999;51.332;9.458;2023-04-15T15:05:06;7.90;99.90
21676;DHT22;10999;51.332;9.458;2023-04-15T15:07:34;7.90;99.90
21676;DHT22;10999;51.332;9.458;2023-04-15T15:10:03;7.90;99.90
21676;DHT22;10999;51.332;9.458;2023-04-15T15:12:32;8.00;99.90
21676;DHT22;10999;51.332;9.458;2023-04-15T15:15:01;8.00;99.90
21676;DHT22;10999;51.332;9.458;2023-04-15T15:17:35;8.00;99.90
21676;DHT22;10999;51.332;9.458;2023-04-15T15:20:02;8.00;99.90
21676;DHT22;10999;51.332;9.458;2023-04-15T15:22:29;8.10;99.90
21676;DHT22;10999;51.332;9.458;2023-04-15T15:24:56;8.00;99.90
21676;DHT22;10999;51.332;9.458;2023-04-15T15:27:24;8.10;99.90
21676;DHT22;10999;51.332;9.458;2023-04-15T15:29:51;8.00;99.90
21676;DHT22;10999;51.332;9.458;2023-04-15T15:32:18;8.10;99.90
21676;DHT22;10999;51.332;9.458;2023-04-15T15:34:44;8.00;99.90
21676;DHT22;10999;51.332;9.458;2023-04-15T15:37:11;8.10;99.90
21676;DHT22;10999;51.332;9.458;2023-04-15T15:39:38;8.10;99.90
21676;DHT22;10999;51.332;9.458;2023-04-15T15:42:05;8.10;99.90
21676;DHT22;10999;51.332;9.458;2023-04-15T15:44:32;8.10;99.90
21676;DHT22;10999;51.332;9.458;2023-04-15T15:47:00;8.10;99.90
21676;DHT22;10999;51.332;9.458;2023-04-15T15:49:27;8.10;99.90
21676;DHT22;10999;51.332;9.458;2023-04-15T15:51:54;8.20;99.90
21676;DHT22;10999;51.332;9.458;2023-04-15T15:54:21;8.20;99.90
21676;DHT22;10999;51.332;9.458;2023-04-15T15:56:48;8.20;99.90
21676;DHT22;10999;51.332;9.458;2023-04-15T15:59:15;8.20;99.90
21676;DHT22;10999;51.332;9.458;2023-04-15T16:01:42;8.20;99.90
21676;DHT22;10999;51.332;9.458;2023-04-15T16:04:09;8.20;99.90
21676;DHT22;10999;51.332;9.458;2023-04-15T16:06:36;8.30;99.90
21676;DHT22;10999;51.332;9.458;2023-04-15T16:09:03;8.30;99.90
21676;DHT22;10999;51.332;9.458;2023-04-15T16:11:30;8.30;99.90
21676;DHT22;10999;51.332;9.458;2023-04-15T16:13:57;8.30;99.90
21676;DHT22;10999;51.332;9.458;2023-04-15T16:16:24;8.30;99.90
21676;DHT22;10999;51.332;9.458;2023-04-15T16:18:50;8.30;99.90